sensor_id;sensor_type;location;lat;lon;timestamp;P1;durP1;ratioP1;P2;durP2;ratioP2
57752;SDS011;43583;53.132;6.574;2023-06-05T00:00:51;2.85;;;1.48;;
57752;SDS011;43583;53.132;6.574;2023-06-05T00:03:17;3.40;;;1.88;;
57752;SDS011;43583;53.132;6.574;2023-06-05T00:05:43;5.55;;;2.38;;
57752;SDS011;43583;53.132;6.574;2023-06-05T00:08:08;2.35;;;2.00;;
57752;SDS011;43583;53.132;6.574;2023-06-05T00:10:34;6.03;;;2.22;;
57752;SDS011;43583;53.132;6.574;2023-06-05T00:12:59;5.85;;;2.33;;
57752;SDS011;43583;53.132;6.574;2023-06-05T00:15:25;4.90;;;2.60;;
57752;SDS011;43583;53.132;6.574;2023-06-05T00:17:50;6.30;;;3.50;;
57752;SDS011;43583;53.132;6.574;2023-06-05T00:20:16;6.55;;;2.83;;
57752;SDS011;43583;53.132;6.574;2023-06-05T00:22:42;5.43;;;2.47;;
57752;SDS011;43583;53.132;6.574;2023-06-05T00:25:12;7.38;;;3.85;;
57752;SDS011;43583;53.132;6.574;2023-06-05T00:27:37;5.65;;;2.75;;
57752;SDS011;43583;53.132;6.574;2023-06-05T00:30:06;4.80;;;2.65;;
57752;SDS011;43583;53.132;6.574;2023-06-05T00:32:32;5.22;;;2.83;;
57752;SDS011;43583;53.132;6.574;2023-06-05T00:34:58;6.20;;;2.70;;
57752;SDS011;43583;53.132;6.574;2023-06-05T00:37:24;4.70;;;2.92;;
57752;SDS011;43583;53.132;6.574;2023-06-05T00:39:50;2.95;;;1.90;;
57752;SDS011;43583;53.132;6.574;2023-06-05T00:42:15;4.57;;;2.38;;
57752;SDS011;43583;53.132;6.574;2023-06-05T00:44:41;4.13;;;1.88;;
57752;SDS011;43583;53.132;6.574;2023-06-05T00:47:06;3.15;;;1.77;;
57752;SDS011;43583;53.132;6.574;2023-06-05T00:49:32;4.20;;;2.15;;
57752;SDS011;43583;53.132;6.574;2023-06-05T00:51:58;4.90;;;2.40;;
57752;SDS011;43583;53.132;6.574;2023-06-05T00:54:24;5.10;;;1.90;;
57752;SDS011;43583;53.132;6.574;2023-06-05T00:56:50;4.07;;;2.30;;
57752;SDS011;43583;53.132;6.574;2023-06-05T00:59:17;3.58;;;1.98;;
57752;SDS011;43583;53.132;6.574;2023-06-05T01:01:43;5.68;;;2.15;;
57752;SDS011;43583;53.132;6.574;2023-06-05T01:04:10;3.30;;;1.92;;
57752;SDS011;43583;53.132;6.574;2023-06-05T01:06:36;4.28;;;1.65;;
57752;SDS011;43583;53.132;6.574;2023-06-05T01:09:03;5.07;;;1.88;;
57752;SDS011;43583;53.132;6.574;2023-06-05T01:11:50;6.35;;;2.30;;
57752;SDS011;43583;53.132;6.574;2023-06-05T01:14:21;4.88;;;1.58;;
57752;SDS011;43583;53.132;6.574;2023-06-05T01:16:48;3.85;;;2.72;;
57752;SDS011;43583;53.132;6.574;2023-06-05T01:19:21;3.65;;;2.05;;
57752;SDS011;43583;53.132;6.574;2023-06-05T01:21:57;3.88;;;2.10;;
57752;SDS011;43583;53.132;6.574;2023-06-05T01:24:24;4.30;;;2.22;;
57752;SDS011;43583;53.132;6.574;2023-06-05T01:29:37;5.38;;;2.53;;
57752;SDS011;43583;53.132;6.574;2023-06-05T01:32:15;5.45;;;3.20;;
57752;SDS011;43583;53.132;6.574;2023-06-05T01:34:44;4.32;;;1.73;;
57752;SDS011;43583;53.132;6.574;2023-06-05T01:37:13;5.60;;;2.90;;
57752;SDS011;43583;53.132;6.574;2023-06-05T01:39:44;4.40;;;2.47;;
57752;SDS011;43583;53.132;6.574;2023-06-05T01:42:12;5.30;;;2.25;;
57752;SDS011;43583;53.132;6.574;2023-06-05T01:44:39;3.85;;;2.17;;
57752;SDS011;43583;53.132;6.574;2023-06-05T01:47:06;7.90;;;2.60;;
57752;SDS011;43583;53.132;6.574;2023-06-05T01:49:32;8.73;;;2.45;;
57752;SDS011;43583;53.132;6.574;2023-06-05T01:51:58;4.68;;;2.03;;
57752;SDS011;43583;53.132;6.574;2023-06-05T01:54:24;4.80;;;2.72;;
57752;SDS011;43583;53.132;6.574;2023-06-05T01:56:51;6.03;;;2.20;;
57752;SDS011;43583;53.132;6.574;2023-06-05T01:59:18;4.15;;;2.78;;
57752;SDS011;43583;53.132;6.574;2023-06-05T02:01:44;5.13;;;2.72;;
57752;SDS011;43583;53.132;6.574;2023-06-05T02:04:10;6.38;;;2.97;;
57752;SDS011;43583;53.132;6.574;2023-06-05T02:06:36;5.88;;;3.58;;
57752;SDS011;43583;53.132;6.574;2023-06-05T02:09:08;6.70;;;2.70;;
57752;SDS011;43583;53.132;6.574;2023-06-05T02:11:35;7.93;;;3.47;;
57752;SDS011;43583;53.132;6.574;2023-06-05T02:14:02;5.32;;;3.65;;
57752;SDS011;43583;53.132;6.574;2023-06-05T02:16:30;8.00;;;3.20;;
57752;SDS011;43583;53.132;6.574;2023-06-05T02:18:56;7.05;;;3.38;;
57752;SDS011;43583;53.132;6.574;2023-06-05T02:21:28;5.68;;;2.92;;
57752;SDS011;43583;53.132;6.574;2023-06-05T02:24:00;6.03;;;3.08;;
57752;SDS011;43583;53.132;6.574;2023-06-05T02:26:27;5.55;;;2.90;;
57752;SDS011;43583;53.132;6.574;2023-06-05T02:28:53;5.60;;;3.25;;
57752;SDS011;43583;53.132;6.574;2023-06-05T02:31:24;7.47;;;3.22;;
57752;SDS011;43583;53.132;6.574;2023-06-05T02:33:53;5.85;;;3.30;;
57752;SDS011;43583;53.132;6.574;2023-06-05T02:36:20;7.53;;;3.03;;
57752;SDS011;43583;53.132;6.574;2023-06-05T02:38:47;5.13;;;2.65;;
57752;SDS011;43583;53.132;6.574;2023-06-05T02:41:14;6.55;;;3.63;;
57752;SDS011;43583;53.132;6.574;2023-06-05T02:43:44;4.95;;;3.35;;
57752;SDS011;43583;53.132;6.574;2023-06-05T02:46:10;6.30;;;3.70;;
57752;SDS011;43583;53.132;6.574;2023-06-05T02:48:36;8.93;;;3.67;;
57752;SDS011;43583;53.132;6.574;2023-06-05T02:51:02;5.05;;;3.17;;
57752;SDS011;43583;53.132;6.574;2023-06-05T02:53:28;4.70;;;3.45;;
57752;SDS011;43583;53.132;6.574;2023-06-05T02:55:54;6.63;;;2.97;;
57752;SDS011;43583;53.132;6.574;2023-06-05T02:58:24;6.82;;;4.20;;
57752;SDS011;43583;53.132;6.574;2023-06-05T03:00:50;4.20;;;2.75;;
57752;SDS011;43583;53.132;6.574;2023-06-05T03:03:15;8.15;;;3.13;;
57752;SDS011;43583;53.132;6.574;2023-06-05T03:05:42;5.35;;;3.10;;
57752;SDS011;43583;53.132;6.574;2023-06-05T03:08:09;4.57;;;2.70;;
57752;SDS011;43583;53.132;6.574;2023-06-05T03:10:35;5.45;;;2.85;;
57752;SDS011;43583;53.132;6.574;2023-06-05T03:13:01;4.78;;;2.22;;
57752;SDS011;43583;53.132;6.574;2023-06-05T03:15:27;4.13;;;3.22;;
57752;SDS011;43583;53.132;6.574;2023-06-05T03:17:53;7.30;;;2.90;;
57752;SDS011;43583;53.132;6.574;2023-06-05T03:20:18;5.18;;;2.72;;
57752;SDS011;43583;53.132;6.574;2023-06-05T03:22:44;5.07;;;2.80;;
57752;SDS011;43583;53.132;6.574;2023-06-05T03:25:10;4.65;;;2.63;;
57752;SDS011;43583;53.132;6.574;2023-06-05T03:27:36;5.60;;;2.83;;
57752;SDS011;43583;53.132;6.574;2023-06-05T03:30:02;4.97;;;2.88;;
57752;SDS011;43583;53.132;6.574;2023-06-05T03:32:28;4.88;;;3.25;;
57752;SDS011;43583;53.132;6.574;2023-06-05T03:34:54;7.38;;;3.08;;
57752;SDS011;43583;53.132;6.574;2023-06-05T03:37:20;4.07;;;3.10;;
57752;SDS011;43583;53.132;6.574;2023-06-05T03:39:46;4.55;;;2.90;;
57752;SDS011;43583;53.132;6.574;2023-06-05T03:42:12;5.28;;;2.47;;
57752;SDS011;43583;53.132;6.574;2023-06-05T03:44:37;5.28;;;2.78;;
57752;SDS011;43583;53.132;6.574;2023-06-05T03:47:03;4.28;;;2.70;;
57752;SDS011;43583;53.132;6.574;2023-06-05T03:49:30;5.68;;;2.67;;
57752;SDS011;43583;53.132;6.574;2023-06-05T03:51:55;4.75;;;2.80;;
57752;SDS011;43583;53.132;6.574;2023-06-05T03:54:26;4.55;;;2.80;;
57752;SDS011;43583;53.132;6.574;2023-06-05T03:56:53;3.13;;;1.98;;
57752;SDS011;43583;53.132;6.574;2023-06-05T03:59:20;3.83;;;2.42;;
57752;SDS011;43583;53.132;6.574;2023-06-05T04:01:47;4.90;;;2.65;;
57752;SDS011;43583;53.132;6.574;2023-06-05T04:04:13;5.15;;;2.53;;
57752;SDS011;43583;53.132;6.574;2023-06-05T04:06:39;6.47;;;2.60;;
57752;SDS011;43583;53.132;6.574;2023-06-05T04:09:05;2.45;;;1.85;;
57752;SDS011;43583;53.132;6.574;2023-06-05T04:11:40;3.67;;;2.38;;
57752;SDS011;43583;53.132;6.574;2023-06-05T04:14:07;4.43;;;1.83;;
57752;SDS011;43583;53.132;6.574;2023-06-05T04:16:34;3.55;;;2.13;;
57752;SDS011;43583;53.132;6.574;2023-06-05T04:19:04;3.53;;;2.03;;
57752;SDS011;43583;53.132;6.574;2023-06-05T04:21:31;4.20;;;2.80;;
57752;SDS011;43583;53.132;6.574;2023-06-05T04:24:01;7.35;;;3.15;;
57752;SDS011;43583;53.132;6.574;2023-06-05T04:26:28;5.18;;;2.42;;
57752;SDS011;43583;53.132;6.574;2023-06-05T04:28:54;3.42;;;2.60;;
57752;SDS011;43583;53.132;6.574;2023-06-05T04:31:21;5.30;;;2.47;;
57752;SDS011;43583;53.132;6.574;2023-06-05T04:33:48;5.03;;;2.65;;
57752;SDS011;43583;53.132;6.574;2023-06-05T04:36:13;3.63;;;2.40;;
57752;SDS011;43583;53.132;6.574;2023-06-05T04:38:39;4.18;;;2.17;;
57752;SDS011;43583;53.132;6.574;2023-06-05T04:41:05;4.85;;;2.63;;
57752;SDS011;43583;53.132;6.574;2023-06-05T04:43:31;4.15;;;1.48;;
57752;SDS011;43583;53.132;6.574;2023-06-05T04:45:56;2.97;;;1.58;;
57752;SDS011;43583;53.132;6.574;2023-06-05T04:48:22;3.90;;;2.05;;
57752;SDS011;43583;53.132;6.574;2023-06-05T04:50:47;3.63;;;1.55;;
57752;SDS011;43583;53.132;6.574;2023-06-05T04:53:13;3.17;;;2.35;;
57752;SDS011;43583;53.132;6.574;2023-06-05T04:55:39;5.63;;;2.10;;
57752;SDS011;43583;53.132;6.574;2023-06-05T04:58:04;4.28;;;1.77;;
57752;SDS011;43583;53.132;6.574;2023-06-05T05:00:31;2.90;;;1.75;;
57752;SDS011;43583;53.132;6.574;2023-06-05T05:02:57;3.17;;;1.77;;
57752;SDS011;43583;53.132;6.574;2023-06-05T05:05:24;3.50;;;1.35;;
57752;SDS011;43583;53.132;6.574;2023-06-05T05:07:50;2.95;;;1.25;;
57752;SDS011;43583;53.132;6.574;2023-06-05T05:10:15;2.72;;;0.88;;
57752;SDS011;43583;53.132;6.574;2023-06-05T05:12:41;4.15;;;1.20;;
57752;SDS011;43583;53.132;6.574;2023-06-05T05:15:06;2.38;;;1.00;;
57752;SDS011;43583;53.132;6.574;2023-06-05T05:17:32;5.43;;;1.00;;
57752;SDS011;43583;53.132;6.574;2023-06-05T05:19:58;3.78;;;1.20;;
57752;SDS011;43583;53.132;6.574;2023-06-05T05:22:24;2.08;;;1.33;;
57752;SDS011;43583;53.132;6.574;2023-06-05T05:24:51;3.50;;;1.25;;
57752;SDS011;43583;53.132;6.574;2023-06-05T05:27:16;1.80;;;0.80;;
57752;SDS011;43583;53.132;6.574;2023-06-05T05:29:42;2.17;;;1.10;;
57752;SDS011;43583;53.132;6.574;2023-06-05T05:32:07;3.28;;;1.02;;
57752;SDS011;43583;53.132;6.574;2023-06-05T05:34:33;2.70;;;0.98;;
57752;SDS011;43583;53.132;6.574;2023-06-05T05:37:02;1.42;;;0.70;;
57752;SDS011;43583;53.132;6.574;2023-06-05T05:39:28;2.28;;;0.47;;
57752;SDS011;43583;53.132;6.574;2023-06-05T05:41:54;3.53;;;0.80;;
57752;SDS011;43583;53.132;6.574;2023-06-05T05:44:20;1.42;;;0.50;;
57752;SDS011;43583;53.132;6.574;2023-06-05T05:46:46;1.85;;;0.55;;
57752;SDS011;43583;53.132;6.574;2023-06-05T05:49:12;1.55;;;0.40;;
57752;SDS011;43583;53.132;6.574;2023-06-05T05:51:38;1.20;;;0.45;;
57752;SDS011;43583;53.132;6.574;2023-06-05T05:54:04;0.60;;;0.30;;
57752;SDS011;43583;53.132;6.574;2023-06-05T05:56:30;1.75;;;0.70;;
57752;SDS011;43583;53.132;6.574;2023-06-05T05:58:55;1.77;;;0.40;;
57752;SDS011;43583;53.132;6.574;2023-06-05T06:01:21;0.80;;;0.30;;
57752;SDS011;43583;53.132;6.574;2023-06-05T06:03:47;1.10;;;0.50;;
57752;SDS011;43583;53.132;6.574;2023-06-05T06:06:13;2.15;;;0.70;;
57752;SDS011;43583;53.132;6.574;2023-06-05T06:08:38;1.02;;;0.40;;
57752;SDS011;43583;53.132;6.574;2023-06-05T06:11:04;1.25;;;0.50;;
57752;SDS011;43583;53.132;6.574;2023-06-05T06:13:31;1.80;;;0.40;;
57752;SDS011;43583;53.132;6.574;2023-06-05T06:15:58;0.77;;;0.40;;
57752;SDS011;43583;53.132;6.574;2023-06-05T06:18:24;2.80;;;0.40;;
57752;SDS011;43583;53.132;6.574;2023-06-05T06:20:50;1.95;;;0.55;;
57752;SDS011;43583;53.132;6.574;2023-06-05T06:23:16;1.10;;;0.57;;
57752;SDS011;43583;53.132;6.574;2023-06-05T06:25:41;1.10;;;0.63;;
57752;SDS011;43583;53.132;6.574;2023-06-05T06:28:07;1.20;;;0.40;;
57752;SDS011;43583;53.132;6.574;2023-06-05T06:30:33;1.75;;;0.65;;
57752;SDS011;43583;53.132;6.574;2023-06-05T06:32:58;1.10;;;0.50;;
57752;SDS011;43583;53.132;6.574;2023-06-05T06:35:24;1.27;;;0.60;;
57752;SDS011;43583;53.132;6.574;2023-06-05T06:37:54;1.25;;;0.45;;
57752;SDS011;43583;53.132;6.574;2023-06-05T06:40:21;1.20;;;0.50;;
57752;SDS011;43583;53.132;6.574;2023-06-05T06:42:47;0.95;;;0.40;;
57752;SDS011;43583;53.132;6.574;2023-06-05T06:45:13;1.73;;;0.45;;
57752;SDS011;43583;53.132;6.574;2023-06-05T06:47:39;1.33;;;0.73;;
57752;SDS011;43583;53.132;6.574;2023-06-05T06:50:06;1.92;;;0.38;;
57752;SDS011;43583;53.132;6.574;2023-06-05T06:52:32;0.70;;;0.30;;
57752;SDS011;43583;53.132;6.574;2023-06-05T06:54:58;1.38;;;0.38;;
57752;SDS011;43583;53.132;6.574;2023-06-05T06:57:23;1.73;;;0.45;;
57752;SDS011;43583;53.132;6.574;2023-06-05T06:59:49;1.40;;;0.50;;
57752;SDS011;43583;53.132;6.574;2023-06-05T07:02:15;1.73;;;0.40;;
57752;SDS011;43583;53.132;6.574;2023-06-05T07:04:45;0.93;;;0.50;;
57752;SDS011;43583;53.132;6.574;2023-06-05T07:07:12;1.77;;;0.32;;
57752;SDS011;43583;53.132;6.574;2023-06-05T07:09:40;1.10;;;0.40;;
57752;SDS011;43583;53.132;6.574;2023-06-05T07:12:09;0.80;;;0.20;;
57752;SDS011;43583;53.132;6.574;2023-06-05T07:14:36;0.80;;;0.30;;
57752;SDS011;43583;53.132;6.574;2023-06-05T07:17:02;1.80;;;0.30;;
57752;SDS011;43583;53.132;6.574;2023-06-05T07:19:29;0.90;;;0.30;;
57752;SDS011;43583;53.132;6.574;2023-06-05T07:21:55;1.25;;;0.20;;
57752;SDS011;43583;53.132;6.574;2023-06-05T07:24:22;0.70;;;0.30;;
57752;SDS011;43583;53.132;6.574;2023-06-05T07:26:49;0.70;;;0.30;;
57752;SDS011;43583;53.132;6.574;2023-06-05T07:29:17;0.55;;;0.20;;
57752;SDS011;43583;53.132;6.574;2023-06-05T07:31:44;0.85;;;0.20;;
57752;SDS011;43583;53.132;6.574;2023-06-05T07:34:09;0.90;;;0.30;;
57752;SDS011;43583;53.132;6.574;2023-06-05T07:36:37;0.60;;;0.20;;
57752;SDS011;43583;53.132;6.574;2023-06-05T07:39:03;0.75;;;0.32;;
57752;SDS011;43583;53.132;6.574;2023-06-05T07:41:29;2.72;;;0.30;;
57752;SDS011;43583;53.132;6.574;2023-06-05T07:43:55;1.70;;;0.20;;
57752;SDS011;43583;53.132;6.574;2023-06-05T07:46:21;1.35;;;0.30;;
57752;SDS011;43583;53.132;6.574;2023-06-05T07:48:46;0.85;;;0.30;;
57752;SDS011;43583;53.132;6.574;2023-06-05T07:51:12;0.40;;;0.17;;
57752;SDS011;43583;53.132;6.574;2023-06-05T07:53:37;0.75;;;0.45;;
57752;SDS011;43583;53.132;6.574;2023-06-05T07:56:03;1.58;;;0.45;;
57752;SDS011;43583;53.132;6.574;2023-06-05T07:58:28;0.60;;;0.20;;
57752;SDS011;43583;53.132;6.574;2023-06-05T08:00:54;1.55;;;0.40;;
57752;SDS011;43583;53.132;6.574;2023-06-05T08:03:21;0.63;;;0.20;;
57752;SDS011;43583;53.132;6.574;2023-06-05T08:05:48;1.55;;;0.30;;
57752;SDS011;43583;53.132;6.574;2023-06-05T08:08:15;0.57;;;0.20;;
57752;SDS011;43583;53.132;6.574;2023-06-05T08:10:41;1.15;;;0.30;;
57752;SDS011;43583;53.132;6.574;2023-06-05T08:13:07;0.45;;;0.20;;
57752;SDS011;43583;53.132;6.574;2023-06-05T08:15:33;2.33;;;0.40;;
57752;SDS011;43583;53.132;6.574;2023-06-05T08:17:59;1.30;;;0.40;;
57752;SDS011;43583;53.132;6.574;2023-06-05T08:20:24;1.38;;;0.30;;
57752;SDS011;43583;53.132;6.574;2023-06-05T08:22:50;1.60;;;0.30;;
57752;SDS011;43583;53.132;6.574;2023-06-05T08:25:15;1.17;;;0.20;;
57752;SDS011;43583;53.132;6.574;2023-06-05T08:27:41;1.02;;;0.30;;
57752;SDS011;43583;53.132;6.574;2023-06-05T08:30:07;0.98;;;0.20;;
57752;SDS011;43583;53.132;6.574;2023-06-05T08:32:33;1.00;;;0.20;;
57752;SDS011;43583;53.132;6.574;2023-06-05T08:34:59;1.02;;;0.20;;
57752;SDS011;43583;53.132;6.574;2023-06-05T08:37:24;1.30;;;0.20;;
57752;SDS011;43583;53.132;6.574;2023-06-05T08:39:50;0.75;;;0.40;;
57752;SDS011;43583;53.132;6.574;2023-06-05T08:42:16;1.02;;;0.30;;
57752;SDS011;43583;53.132;6.574;2023-06-05T08:44:46;0.80;;;0.30;;
57752;SDS011;43583;53.132;6.574;2023-06-05T08:47:12;1.10;;;0.30;;
57752;SDS011;43583;53.132;6.574;2023-06-05T08:49:40;1.35;;;0.30;;
57752;SDS011;43583;53.132;6.574;2023-06-05T08:52:06;1.00;;;0.60;;
57752;SDS011;43583;53.132;6.574;2023-06-05T08:54:39;1.50;;;0.35;;
57752;SDS011;43583;53.132;6.574;2023-06-05T08:57:06;1.38;;;0.30;;
57752;SDS011;43583;53.132;6.574;2023-06-05T08:59:32;1.40;;;0.50;;
57752;SDS011;43583;53.132;6.574;2023-06-05T09:01:59;1.55;;;0.40;;
57752;SDS011;43583;53.132;6.574;2023-06-05T09:04:25;0.88;;;0.40;;
57752;SDS011;43583;53.132;6.574;2023-06-05T09:06:55;1.35;;;0.40;;
57752;SDS011;43583;53.132;6.574;2023-06-05T09:09:24;1.40;;;0.52;;
57752;SDS011;43583;53.132;6.574;2023-06-05T09:14:27;0.80;;;0.43;;
57752;SDS011;43583;53.132;6.574;2023-06-05T09:16:53;1.65;;;0.70;;
57752;SDS011;43583;53.132;6.574;2023-06-05T09:19:18;0.75;;;0.45;;
57752;SDS011;43583;53.132;6.574;2023-06-05T09:21:53;1.58;;;0.70;;
57752;SDS011;43583;53.132;6.574;2023-06-05T09:24:20;1.10;;;0.47;;
57752;SDS011;43583;53.132;6.574;2023-06-05T09:26:53;1.40;;;0.43;;
57752;SDS011;43583;53.132;6.574;2023-06-05T09:31:54;1.10;;;0.40;;
57752;SDS011;43583;53.132;6.574;2023-06-05T09:34:24;7.28;;;0.45;;
57752;SDS011;43583;53.132;6.574;2023-06-05T09:36:55;2.38;;;0.75;;
57752;SDS011;43583;53.132;6.574;2023-06-05T09:39:27;2.20;;;0.98;;
57752;SDS011;43583;53.132;6.574;2023-06-05T09:41:54;1.13;;;0.60;;
57752;SDS011;43583;53.132;6.574;2023-06-05T09:44:21;1.60;;;0.50;;
57752;SDS011;43583;53.132;6.574;2023-06-05T09:46:51;1.70;;;0.95;;
57752;SDS011;43583;53.132;6.574;2023-06-05T09:49:25;1.65;;;0.50;;
57752;SDS011;43583;53.132;6.574;2023-06-05T09:51:55;1.60;;;0.50;;
57752;SDS011;43583;53.132;6.574;2023-06-05T09:54:22;1.45;;;0.30;;
57752;SDS011;43583;53.132;6.574;2023-06-05T09:56:50;1.48;;;0.65;;
57752;SDS011;43583;53.132;6.574;2023-06-05T09:59:19;1.73;;;0.63;;
57752;SDS011;43583;53.132;6.574;2023-06-05T10:01:52;1.33;;;0.50;;
57752;SDS011;43583;53.132;6.574;2023-06-05T10:04:20;1.52;;;0.50;;
57752;SDS011;43583;53.132;6.574;2023-06-05T10:06:48;2.97;;;0.52;;
57752;SDS011;43583;53.132;6.574;2023-06-05T10:09:16;1.52;;;0.40;;
57752;SDS011;43583;53.132;6.574;2023-06-05T10:11:42;1.67;;;0.82;;
57752;SDS011;43583;53.132;6.574;2023-06-05T10:14:08;1.20;;;0.43;;
57752;SDS011;43583;53.132;6.574;2023-06-05T10:16:34;2.42;;;0.50;;
57752;SDS011;43583;53.132;6.574;2023-06-05T10:19:00;1.15;;;0.55;;
57752;SDS011;43583;53.132;6.574;2023-06-05T10:21:28;1.65;;;0.60;;
57752;SDS011;43583;53.132;6.574;2023-06-05T10:34:56;1.67;;;0.20;;
57752;SDS011;43583;53.132;6.574;2023-06-05T10:40:43;1.77;;;0.40;;
57752;SDS011;43583;53.132;6.574;2023-06-05T10:43:26;0.80;;;0.40;;
57752;SDS011;43583;53.132;6.574;2023-06-05T10:45:55;2.35;;;0.45;;
57752;SDS011;43583;53.132;6.574;2023-06-05T10:49:23;0.90;;;0.40;;
57752;SDS011;43583;53.132;6.574;2023-06-05T10:51:36;2.67;;;0.60;;
57752;SDS011;43583;53.132;6.574;2023-06-05T10:54:04;0.77;;;0.32;;
57752;SDS011;43583;53.132;6.574;2023-06-05T10:59:15;2.28;;;0.65;;
57752;SDS011;43583;53.132;6.574;2023-06-05T11:01:42;1.70;;;0.50;;
57752;SDS011;43583;53.132;6.574;2023-06-05T11:04:07;0.80;;;0.20;;
57752;SDS011;43583;53.132;6.574;2023-06-05T11:06:33;2.80;;;0.22;;
57752;SDS011;43583;53.132;6.574;2023-06-05T11:09:05;0.80;;;0.40;;
57752;SDS011;43583;53.132;6.574;2023-06-05T11:17:28;1.10;;;0.30;;
57752;SDS011;43583;53.132;6.574;2023-06-05T11:19:56;0.93;;;0.40;;
57752;SDS011;43583;53.132;6.574;2023-06-05T11:22:22;0.73;;;0.30;;
57752;SDS011;43583;53.132;6.574;2023-06-05T11:27:45;1.70;;;0.22;;
57752;SDS011;43583;53.132;6.574;2023-06-05T11:30:12;1.95;;;0.60;;
57752;SDS011;43583;53.132;6.574;2023-06-05T11:32:38;1.30;;;0.30;;
57752;SDS011;43583;53.132;6.574;2023-06-05T11:35:04;0.93;;;0.30;;
57752;SDS011;43583;53.132;6.574;2023-06-05T11:37:30;1.10;;;0.40;;
57752;SDS011;43583;53.132;6.574;2023-06-05T11:39:59;1.00;;;0.30;;
57752;SDS011;43583;53.132;6.574;2023-06-05T11:42:30;0.70;;;0.30;;
57752;SDS011;43583;53.132;6.574;2023-06-05T11:44:56;1.15;;;0.30;;
57752;SDS011;43583;53.132;6.574;2023-06-05T11:47:22;4.00;;;0.40;;
57752;SDS011;43583;53.132;6.574;2023-06-05T11:49:49;1.70;;;0.40;;
57752;SDS011;43583;53.132;6.574;2023-06-05T11:52:18;1.17;;;0.30;;
57752;SDS011;43583;53.132;6.574;2023-06-05T11:54:47;0.63;;;0.22;;
57752;SDS011;43583;53.132;6.574;2023-06-05T11:57:38;1.85;;;0.40;;
57752;SDS011;43583;53.132;6.574;2023-06-05T12:00:08;1.77;;;0.47;;
57752;SDS011;43583;53.132;6.574;2023-06-05T12:02:36;1.45;;;0.35;;
57752;SDS011;43583;53.132;6.574;2023-06-05T12:05:06;1.27;;;0.50;;
57752;SDS011;43583;53.132;6.574;2023-06-05T12:07:35;0.50;;;0.28;;
57752;SDS011;43583;53.132;6.574;2023-06-05T12:10:02;0.70;;;0.30;;
57752;SDS011;43583;53.132;6.574;2023-06-05T12:12:29;0.95;;;0.40;;
57752;SDS011;43583;53.132;6.574;2023-06-05T12:14:54;2.15;;;0.52;;
57752;SDS011;43583;53.132;6.574;2023-06-05T12:17:21;1.38;;;0.35;;
57752;SDS011;43583;53.132;6.574;2023-06-05T12:19:53;1.35;;;0.50;;
57752;SDS011;43583;53.132;6.574;2023-06-05T12:22:19;1.70;;;0.50;;
57752;SDS011;43583;53.132;6.574;2023-06-05T12:24:45;3.65;;;0.50;;
57752;SDS011;43583;53.132;6.574;2023-06-05T12:27:11;1.33;;;0.40;;
57752;SDS011;43583;53.132;6.574;2023-06-05T12:29:37;2.55;;;0.45;;
57752;SDS011;43583;53.132;6.574;2023-06-05T12:32:20;1.88;;;0.40;;
57752;SDS011;43583;53.132;6.574;2023-06-05T12:34:50;2.83;;;0.32;;
57752;SDS011;43583;53.132;6.574;2023-06-05T12:39:48;1.25;;;0.40;;
57752;SDS011;43583;53.132;6.574;2023-06-05T12:42:13;1.30;;;0.35;;
57752;SDS011;43583;53.132;6.574;2023-06-05T12:44:39;0.82;;;0.40;;
57752;SDS011;43583;53.132;6.574;2023-06-05T12:47:05;1.25;;;0.35;;
57752;SDS011;43583;53.132;6.574;2023-06-05T12:49:30;1.95;;;0.30;;
57752;SDS011;43583;53.132;6.574;2023-06-05T12:51:56;2.40;;;0.80;;
57752;SDS011;43583;53.132;6.574;2023-06-05T12:54:22;2.50;;;0.40;;
57752;SDS011;43583;53.132;6.574;2023-06-05T12:56:48;1.25;;;0.30;;
57752;SDS011;43583;53.132;6.574;2023-06-05T12:59:14;1.10;;;0.20;;
57752;SDS011;43583;53.132;6.574;2023-06-05T13:01:40;1.95;;;0.32;;
57752;SDS011;43583;53.132;6.574;2023-06-05T13:04:05;0.80;;;0.30;;
57752;SDS011;43583;53.132;6.574;2023-06-05T13:06:31;2.00;;;0.43;;
57752;SDS011;43583;53.132;6.574;2023-06-05T13:08:59;2.22;;;0.43;;
57752;SDS011;43583;53.132;6.574;2023-06-05T13:11:25;1.25;;;0.45;;
57752;SDS011;43583;53.132;6.574;2023-06-05T13:13:51;1.63;;;0.40;;
57752;SDS011;43583;53.132;6.574;2023-06-05T13:16:16;1.45;;;0.32;;
57752;SDS011;43583;53.132;6.574;2023-06-05T13:18:42;2.83;;;0.30;;
57752;SDS011;43583;53.132;6.574;2023-06-05T13:21:07;1.10;;;0.50;;
57752;SDS011;43583;53.132;6.574;2023-06-05T13:23:33;1.23;;;0.40;;
57752;SDS011;43583;53.132;6.574;2023-06-05T13:26:02;3.72;;;0.60;;
57752;SDS011;43583;53.132;6.574;2023-06-05T13:28:28;1.60;;;0.40;;
57752;SDS011;43583;53.132;6.574;2023-06-05T13:30:54;1.10;;;0.60;;
57752;SDS011;43583;53.132;6.574;2023-06-05T13:33:21;4.10;;;0.65;;
57752;SDS011;43583;53.132;6.574;2023-06-05T13:35:47;1.88;;;0.95;;
57752;SDS011;43583;53.132;6.574;2023-06-05T13:38:13;2.30;;;0.40;;
57752;SDS011;43583;53.132;6.574;2023-06-05T13:40:38;1.65;;;0.50;;
57752;SDS011;43583;53.132;6.574;2023-06-05T13:43:06;3.40;;;0.90;;
57752;SDS011;43583;53.132;6.574;2023-06-05T13:45:31;7.65;;;0.75;;
57752;SDS011;43583;53.132;6.574;2023-06-05T13:47:57;3.58;;;1.02;;
57752;SDS011;43583;53.132;6.574;2023-06-05T13:50:23;1.50;;;0.82;;
57752;SDS011;43583;53.132;6.574;2023-06-05T13:52:48;3.33;;;0.63;;
57752;SDS011;43583;53.132;6.574;2023-06-05T13:55:15;2.00;;;0.70;;
57752;SDS011;43583;53.132;6.574;2023-06-05T13:57:40;2.00;;;1.20;;
57752;SDS011;43583;53.132;6.574;2023-06-05T14:00:06;2.25;;;1.15;;
57752;SDS011;43583;53.132;6.574;2023-06-05T14:02:32;2.53;;;0.88;;
57752;SDS011;43583;53.132;6.574;2023-06-05T14:04:58;3.65;;;0.88;;
57752;SDS011;43583;53.132;6.574;2023-06-05T14:07:24;1.60;;;0.95;;
57752;SDS011;43583;53.132;6.574;2023-06-05T14:09:49;2.65;;;1.00;;
57752;SDS011;43583;53.132;6.574;2023-06-05T14:12:15;3.67;;;1.10;;
57752;SDS011;43583;53.132;6.574;2023-06-05T14:14:42;1.50;;;0.50;;
57752;SDS011;43583;53.132;6.574;2023-06-05T14:17:08;1.55;;;0.90;;
57752;SDS011;43583;53.132;6.574;2023-06-05T14:19:34;3.50;;;1.20;;
57752;SDS011;43583;53.132;6.574;2023-06-05T14:21:59;2.25;;;0.82;;
57752;SDS011;43583;53.132;6.574;2023-06-05T14:24:25;2.15;;;0.73;;
57752;SDS011;43583;53.132;6.574;2023-06-05T14:26:52;2.95;;;0.85;;
57752;SDS011;43583;53.132;6.574;2023-06-05T14:29:19;1.80;;;0.63;;
57752;SDS011;43583;53.132;6.574;2023-06-05T14:31:45;1.50;;;0.93;;
57752;SDS011;43583;53.132;6.574;2023-06-05T14:34:10;1.02;;;0.70;;
57752;SDS011;43583;53.132;6.574;2023-06-05T14:36:36;2.20;;;1.10;;
57752;SDS011;43583;53.132;6.574;2023-06-05T14:39:02;3.33;;;1.00;;
57752;SDS011;43583;53.132;6.574;2023-06-05T14:41:28;4.10;;;1.20;;
57752;SDS011;43583;53.132;6.574;2023-06-05T14:43:55;4.45;;;0.98;;
57752;SDS011;43583;53.132;6.574;2023-06-05T14:46:21;1.77;;;1.17;;
57752;SDS011;43583;53.132;6.574;2023-06-05T14:48:46;2.20;;;1.20;;
57752;SDS011;43583;53.132;6.574;2023-06-05T14:51:12;1.60;;;1.08;;
57752;SDS011;43583;53.132;6.574;2023-06-05T14:53:37;2.45;;;0.57;;
57752;SDS011;43583;53.132;6.574;2023-06-05T14:56:03;2.50;;;0.85;;
57752;SDS011;43583;53.132;6.574;2023-06-05T14:58:29;1.50;;;1.08;;
57752;SDS011;43583;53.132;6.574;2023-06-05T15:00:55;2.10;;;0.95;;
57752;SDS011;43583;53.132;6.574;2023-06-05T15:03:20;7.13;;;1.15;;
57752;SDS011;43583;53.132;6.574;2023-06-05T15:05:46;2.03;;;0.90;;
57752;SDS011;43583;53.132;6.574;2023-06-05T15:08:11;1.67;;;1.05;;
57752;SDS011;43583;53.132;6.574;2023-06-05T15:10:37;2.65;;;0.80;;
57752;SDS011;43583;53.132;6.574;2023-06-05T15:13:03;2.85;;;0.90;;
57752;SDS011;43583;53.132;6.574;2023-06-05T15:15:29;3.65;;;1.00;;
57752;SDS011;43583;53.132;6.574;2023-06-05T15:17:55;3.25;;;0.90;;
57752;SDS011;43583;53.132;6.574;2023-06-05T15:20:21;3.67;;;1.02;;
57752;SDS011;43583;53.132;6.574;2023-06-05T15:22:48;2.95;;;1.20;;